sensor_id;sensor_type;location;lat;lon;timestamp;temperature;humidity
51719;DHT22;37795;53.236;5.704;2022-10-16T00:00:43;12.70;81.70
51719;DHT22;37795;53.236;5.704;2022-10-16T00:03:10;12.70;81.60
51719;DHT22;37795;53.236;5.704;2022-10-16T00:05:41;12.80;81.40
51719;DHT22;37795;53.236;5.704;2022-10-16T00:08:08;12.80;81.40
51719;DHT22;37795;53.236;5.704;2022-10-16T00:10:34;12.70;81.50
51719;DHT22;37795;53.236;5.704;2022-10-16T00:13:00;12.70;81.60
51719;DHT22;37795;53.236;5.704;2022-10-16T00:15:26;12.70;81.50
51719;DHT22;37795;53.236;5.704;2022-10-16T00:17:51;12.70;81.50
51719;DHT22;37795;53.236;5.704;2022-10-16T00:20:17;12.70;81.70
51719;DHT22;37795;53.236;5.704;2022-10-16T00:22:43;12.70;81.90
51719;DHT22;37795;53.236;5.704;2022-10-16T00:25:08;12.70;82.00
51719;DHT22;37795;53.236;5.704;2022-10-16T00:27:34;12.70;81.90
51719;DHT22;37795;53.236;5.704;2022-10-16T00:30:00;12.70;82.00
51719;DHT22;37795;53.236;5.704;2022-10-16T00:32:26;12.70;82.10
51719;DHT22;37795;53.236;5.704;2022-10-16T00:34:52;12.70;82.00
51719;DHT22;37795;53.236;5.704;2022-10-16T00:37:20;12.70;82.00
51719;DHT22;37795;53.236;5.704;2022-10-16T00:39:46;12.60;82.00
51719;DHT22;37795;53.236;5.704;2022-10-16T00:42:16;12.60;82.00
51719;DHT22;37795;53.236;5.704;2022-10-16T00:44:54;12.60;82.00
51719;DHT22;37795;53.236;5.704;2022-10-16T00:49:53;12.60;81.90
51719;DHT22;37795;53.236;5.704;2022-10-16T00:52:19;12.60;81.90
51719;DHT22;37795;53.236;5.704;2022-10-16T00:54:46;12.60;81.90
51719;DHT22;37795;53.236;5.704;2022-10-16T00:57:12;12.60;81.80
51719;DHT22;37795;53.236;5.704;2022-10-16T00:59:40;12.70;81.80
51719;DHT22;37795;53.236;5.704;2022-10-16T01:02:08;12.60;81.90
51719;DHT22;37795;53.236;5.704;2022-10-16T01:04:40;12.70;81.90
51719;DHT22;37795;53.236;5.704;2022-10-16T01:13:07;12.80;81.70
51719;DHT22;37795;53.236;5.704;2022-10-16T01:18:41;12.90;81.50
51719;DHT22;37795;53.236;5.704;2022-10-16T01:21:08;12.90;81.40
51719;DHT22;37795;53.236;5.704;2022-10-16T01:29:54;13.00;81.70
51719;DHT22;37795;53.236;5.704;2022-10-16T01:32:33;12.90;82.20
51719;DHT22;37795;53.236;5.704;2022-10-16T01:35:05;12.90;80.50
51719;DHT22;37795;53.236;5.704;2022-10-16T01:40:13;13.00;80.60
51719;DHT22;37795;53.236;5.704;2022-10-16T01:42:45;13.00;80.90
51719;DHT22;37795;53.236;5.704;2022-10-16T01:45:13;13.00;81.00
51719;DHT22;37795;53.236;5.704;2022-10-16T01:47:41;13.10;80.60
51719;DHT22;37795;53.236;5.704;2022-10-16T01:50:09;13.10;80.30
51719;DHT22;37795;53.236;5.704;2022-10-16T01:52:38;13.10;80.40
51719;DHT22;37795;53.236;5.704;2022-10-16T01:55:07;13.10;80.50
51719;DHT22;37795;53.236;5.704;2022-10-16T01:57:36;13.10;80.60
51719;DHT22;37795;53.236;5.704;2022-10-16T02:00:07;13.10;80.80
51719;DHT22;37795;53.236;5.704;2022-10-16T02:02:34;13.10;81.30
51719;DHT22;37795;53.236;5.704;2022-10-16T02:07:44;12.90;82.70
51719;DHT22;37795;53.236;5.704;2022-10-16T02:10:10;12.90;83.10
51719;DHT22;37795;53.236;5.704;2022-10-16T02:12:38;12.90;83.40
51719;DHT22;37795;53.236;5.704;2022-10-16T02:15:06;12.70;83.80
51719;DHT22;37795;53.236;5.704;2022-10-16T02:17:32;12.80;83.90
51719;DHT22;37795;53.236;5.704;2022-10-16T02:19:59;12.70;84.10
51719;DHT22;37795;53.236;5.704;2022-10-16T02:22:38;12.60;83.90
51719;DHT22;37795;53.236;5.704;2022-10-16T02:25:28;12.60;83.90
51719;DHT22;37795;53.236;5.704;2022-10-16T02:28:02;12.50;84.10
51719;DHT22;37795;53.236;5.704;2022-10-16T02:30:58;12.50;84.40
51719;DHT22;37795;53.236;5.704;2022-10-16T02:33:25;12.40;84.90
51719;DHT22;37795;53.236;5.704;2022-10-16T02:35:53;12.40;85.20
51719;DHT22;37795;53.236;5.704;2022-10-16T02:38:20;12.40;85.20
51719;DHT22;37795;53.236;5.704;2022-10-16T02:40:47;12.40;85.50
51719;DHT22;37795;53.236;5.704;2022-10-16T02:43:13;12.40;84.70
51719;DHT22;37795;53.236;5.704;2022-10-16T02:45:39;12.40;84.80
51719;DHT22;37795;53.236;5.704;2022-10-16T02:48:05;12.40;84.80
51719;DHT22;37795;53.236;5.704;2022-10-16T02:50:31;12.40;84.60
51719;DHT22;37795;53.236;5.704;2022-10-16T02:52:56;12.30;84.70
51719;DHT22;37795;53.236;5.704;2022-10-16T02:55:22;12.30;84.40
51719;DHT22;37795;53.236;5.704;2022-10-16T02:57:48;12.30;84.30
51719;DHT22;37795;53.236;5.704;2022-10-16T03:00:15;12.30;84.20
51719;DHT22;37795;53.236;5.704;2022-10-16T03:02:41;12.30;83.80
51719;DHT22;37795;53.236;5.704;2022-10-16T03:05:07;12.30;83.80
51719;DHT22;37795;53.236;5.704;2022-10-16T03:07:33;12.30;83.70
51719;DHT22;37795;53.236;5.704;2022-10-16T03:09:59;12.30;83.70
51719;DHT22;37795;53.236;5.704;2022-10-16T03:12:28;12.30;83.80
51719;DHT22;37795;53.236;5.704;2022-10-16T03:14:55;12.30;83.80
51719;DHT22;37795;53.236;5.704;2022-10-16T03:17:22;12.30;83.70
51719;DHT22;37795;53.236;5.704;2022-10-16T03:19:48;12.30;83.60
51719;DHT22;37795;53.236;5.704;2022-10-16T03:22:14;12.20;83.40
51719;DHT22;37795;53.236;5.704;2022-10-16T03:24:39;12.30;83.30
51719;DHT22;37795;53.236;5.704;2022-10-16T03:27:05;12.20;82.70
51719;DHT22;37795;53.236;5.704;2022-10-16T03:29:31;12.20;83.20
51719;DHT22;37795;53.236;5.704;2022-10-16T03:31:58;12.20;82.80
51719;DHT22;37795;53.236;5.704;2022-10-16T03:34:24;12.20;83.00
51719;DHT22;37795;53.236;5.704;2022-10-16T03:36:51;12.20;82.80
51719;DHT22;37795;53.236;5.704;2022-10-16T03:39:17;12.20;83.00
51719;DHT22;37795;53.236;5.704;2022-10-16T03:41:43;12.20;83.00
51719;DHT22;37795;53.236;5.704;2022-10-16T03:44:08;12.20;83.20
51719;DHT22;37795;53.236;5.704;2022-10-16T03:46:34;12.20;83.00
51719;DHT22;37795;53.236;5.704;2022-10-16T03:49:00;12.20;82.70
51719;DHT22;37795;53.236;5.704;2022-10-16T03:51:25;12.20;82.70
51719;DHT22;37795;53.236;5.704;2022-10-16T03:53:51;12.20;82.80
51719;DHT22;37795;53.236;5.704;2022-10-16T03:56:17;12.20;82.70
51719;DHT22;37795;53.236;5.704;2022-10-16T03:58:42;12.20;82.40
51719;DHT22;37795;53.236;5.704;2022-10-16T04:01:08;12.20;82.30
51719;DHT22;37795;53.236;5.704;2022-10-16T04:03:34;12.30;82.00
51719;DHT22;37795;53.236;5.704;2022-10-16T04:05:59;12.40;82.10
51719;DHT22;37795;53.236;5.704;2022-10-16T04:08:25;12.40;82.30
51719;DHT22;37795;53.236;5.704;2022-10-16T04:10:51;12.40;82.70
51719;DHT22;37795;53.236;5.704;2022-10-16T04:13:16;12.40;83.20
51719;DHT22;37795;53.236;5.704;2022-10-16T04:15:44;12.40;83.40
51719;DHT22;37795;53.236;5.704;2022-10-16T04:18:11;12.50;83.20
51719;DHT22;37795;53.236;5.704;2022-10-16T04:20:37;12.50;83.20
51719;DHT22;37795;53.236;5.704;2022-10-16T04:23:03;12.50;83.40
51719;DHT22;37795;53.236;5.704;2022-10-16T04:25:29;12.50;83.30
51719;DHT22;37795;53.236;5.704;2022-10-16T04:27:55;12.50;83.50
51719;DHT22;37795;53.236;5.704;2022-10-16T04:30:22;12.50;83.50
51719;DHT22;37795;53.236;5.704;2022-10-16T04:32:49;12.50;83.60
51719;DHT22;37795;53.236;5.704;2022-10-16T04:35:16;12.50;83.70
51719;DHT22;37795;53.236;5.704;2022-10-16T04:37:42;12.50;83.60
51719;DHT22;37795;53.236;5.704;2022-10-16T04:40:07;12.50;83.70
51719;DHT22;37795;53.236;5.704;2022-10-16T04:42:33;12.50;83.60
51719;DHT22;37795;53.236;5.704;2022-10-16T04:44:59;12.50;83.90
51719;DHT22;37795;53.236;5.704;2022-10-16T04:47:24;12.40;84.00
51719;DHT22;37795;53.236;5.704;2022-10-16T04:49:50;12.40;84.00
51719;DHT22;37795;53.236;5.704;2022-10-16T04:52:16;12.40;83.70
51719;DHT22;37795;53.236;5.704;2022-10-16T04:54:42;12.40;83.50
51719;DHT22;37795;53.236;5.704;2022-10-16T04:57:10;12.40;83.20
51719;DHT22;37795;53.236;5.704;2022-10-16T04:59:36;12.40;83.10
51719;DHT22;37795;53.236;5.704;2022-10-16T05:02:03;12.50;83.00
51719;DHT22;37795;53.236;5.704;2022-10-16T05:04:28;12.40;82.80
51719;DHT22;37795;53.236;5.704;2022-10-16T05:06:54;12.50;82.30
51719;DHT22;37795;53.236;5.704;2022-10-16T05:09:20;12.50;82.30
51719;DHT22;37795;53.236;5.704;2022-10-16T05:11:46;12.50;82.00
51719;DHT22;37795;53.236;5.704;2022-10-16T05:14:11;12.50;81.90
51719;DHT22;37795;53.236;5.704;2022-10-16T05:16:37;12.50;81.70
51719;DHT22;37795;53.236;5.704;2022-10-16T05:19:03;12.50;81.70
51719;DHT22;37795;53.236;5.704;2022-10-16T05:21:28;12.40;82.00
51719;DHT22;37795;53.236;5.704;2022-10-16T05:23:54;12.40;82.00
51719;DHT22;37795;53.236;5.704;2022-10-16T05:26:20;12.40;82.20
51719;DHT22;37795;53.236;5.704;2022-10-16T05:28:46;12.40;82.10
51719;DHT22;37795;53.236;5.704;2022-10-16T05:31:12;12.50;82.40
51719;DHT22;37795;53.236;5.704;2022-10-16T05:33:37;12.50;82.30
51719;DHT22;37795;53.236;5.704;2022-10-16T05:36:05;12.40;82.60
51719;DHT22;37795;53.236;5.704;2022-10-16T05:38:33;12.30;82.90
51719;DHT22;37795;53.236;5.704;2022-10-16T05:40:59;12.30;83.10
51719;DHT22;37795;53.236;5.704;2022-10-16T05:43:27;12.30;83.20
51719;DHT22;37795;53.236;5.704;2022-10-16T05:45:55;12.30;83.30
51719;DHT22;37795;53.236;5.704;2022-10-16T05:48:21;12.20;83.50
51719;DHT22;37795;53.236;5.704;2022-10-16T05:50:47;12.20;83.70
51719;DHT22;37795;53.236;5.704;2022-10-16T05:53:13;12.20;83.70
51719;DHT22;37795;53.236;5.704;2022-10-16T05:55:39;12.20;83.70
51719;DHT22;37795;53.236;5.704;2022-10-16T05:58:04;12.20;83.50
51719;DHT22;37795;53.236;5.704;2022-10-16T06:00:30;12.20;83.50
51719;DHT22;37795;53.236;5.704;2022-10-16T06:02:56;12.20;83.20
51719;DHT22;37795;53.236;5.704;2022-10-16T06:05:21;12.20;83.00
51719;DHT22;37795;53.236;5.704;2022-10-16T06:07:47;12.30;82.90
51719;DHT22;37795;53.236;5.704;2022-10-16T06:10:13;12.30;82.90
51719;DHT22;37795;53.236;5.704;2022-10-16T06:12:38;12.30;82.70
51719;DHT22;37795;53.236;5.704;2022-10-16T06:15:04;12.30;82.70
51719;DHT22;37795;53.236;5.704;2022-10-16T06:17:30;12.20;82.70
51719;DHT22;37795;53.236;5.704;2022-10-16T06:19:56;12.20;82.70
51719;DHT22;37795;53.236;5.704;2022-10-16T06:22:21;12.20;82.90
51719;DHT22;37795;53.236;5.704;2022-10-16T06:24:47;12.30;83.00
51719;DHT22;37795;53.236;5.704;2022-10-16T06:27:13;12.30;83.00
51719;DHT22;37795;53.236;5.704;2022-10-16T06:29:38;12.30;83.10
51719;DHT22;37795;53.236;5.704;2022-10-16T06:32:04;12.30;83.20
51719;DHT22;37795;53.236;5.704;2022-10-16T06:34:30;12.30;83.40
51719;DHT22;37795;53.236;5.704;2022-10-16T06:36:55;12.30;83.40
51719;DHT22;37795;53.236;5.704;2022-10-16T06:39:21;12.40;83.70
51719;DHT22;37795;53.236;5.704;2022-10-16T06:41:47;12.40;83.60
51719;DHT22;37795;53.236;5.704;2022-10-16T06:44:12;12.40;83.60
51719;DHT22;37795;53.236;5.704;2022-10-16T06:46:38;12.40;83.60
51719;DHT22;37795;53.236;5.704;2022-10-16T06:49:04;12.40;83.60
51719;DHT22;37795;53.236;5.704;2022-10-16T06:51:29;12.40;83.30
51719;DHT22;37795;53.236;5.704;2022-10-16T06:59:52;12.70;83.10
51719;DHT22;37795;53.236;5.704;2022-10-16T07:02:17;12.50;82.70
51719;DHT22;37795;53.236;5.704;2022-10-16T07:04:43;12.60;82.40
51719;DHT22;37795;53.236;5.704;2022-10-16T07:07:09;12.70;81.80
51719;DHT22;37795;53.236;5.704;2022-10-16T07:09:34;12.60;82.10
51719;DHT22;37795;53.236;5.704;2022-10-16T07:12:00;12.60;82.20
51719;DHT22;37795;53.236;5.704;2022-10-16T07:14:26;12.60;82.40
51719;DHT22;37795;53.236;5.704;2022-10-16T07:16:51;12.60;82.80
51719;DHT22;37795;53.236;5.704;2022-10-16T07:19:17;12.60;82.90
51719;DHT22;37795;53.236;5.704;2022-10-16T07:21:43;13.50;80.10
51719;DHT22;37795;53.236;5.704;2022-10-16T07:24:15;14.00;78.40
51719;DHT22;37795;53.236;5.704;2022-10-16T07:26:43;14.30;77.30
51719;DHT22;37795;53.236;5.704;2022-10-16T07:29:20;14.80;75.20
51719;DHT22;37795;53.236;5.704;2022-10-16T07:31:47;14.80;74.40
51719;DHT22;37795;53.236;5.704;2022-10-16T07:34:15;15.00;75.50
51719;DHT22;37795;53.236;5.704;2022-10-16T07:36:41;15.30;73.50
51719;DHT22;37795;53.236;5.704;2022-10-16T07:39:06;14.60;75.00
51719;DHT22;37795;53.236;5.704;2022-10-16T07:41:33;13.90;77.80
51719;DHT22;37795;53.236;5.704;2022-10-16T07:44:02;14.40;77.70
51719;DHT22;37795;53.236;5.704;2022-10-16T07:46:29;14.30;76.40
51719;DHT22;37795;53.236;5.704;2022-10-16T07:48:54;14.20;78.50
51719;DHT22;37795;53.236;5.704;2022-10-16T07:51:22;14.10;77.30
51719;DHT22;37795;53.236;5.704;2022-10-16T07:53:49;13.80;78.40
51719;DHT22;37795;53.236;5.704;2022-10-16T07:56:15;13.50;80.10
51719;DHT22;37795;53.236;5.704;2022-10-16T07:58:42;13.30;80.80
51719;DHT22;37795;53.236;5.704;2022-10-16T08:01:10;13.30;81.40
51719;DHT22;37795;53.236;5.704;2022-10-16T08:03:36;13.20;81.90
51719;DHT22;37795;53.236;5.704;2022-10-16T08:06:02;13.30;81.90
51719;DHT22;37795;53.236;5.704;2022-10-16T08:08:29;13.30;82.00
51719;DHT22;37795;53.236;5.704;2022-10-16T08:10:55;13.30;82.20
51719;DHT22;37795;53.236;5.704;2022-10-16T08:13:21;13.30;82.10
51719;DHT22;37795;53.236;5.704;2022-10-16T08:15:47;13.30;82.30
51719;DHT22;37795;53.236;5.704;2022-10-16T08:18:14;13.30;82.30
51719;DHT22;37795;53.236;5.704;2022-10-16T08:20:40;13.60;82.40
51719;DHT22;37795;53.236;5.704;2022-10-16T08:23:06;15.20;77.10
51719;DHT22;37795;53.236;5.704;2022-10-16T08:25:35;16.40;72.30
51719;DHT22;37795;53.236;5.704;2022-10-16T08:28:06;16.60;70.50
51719;DHT22;37795;53.236;5.704;2022-10-16T08:30:33;16.60;70.70
51719;DHT22;37795;53.236;5.704;2022-10-16T08:32:59;17.00;68.60
51719;DHT22;37795;53.236;5.704;2022-10-16T08:35:24;17.30;68.70
51719;DHT22;37795;53.236;5.704;2022-10-16T08:37:50;18.00;66.30
51719;DHT22;37795;53.236;5.704;2022-10-16T08:40:22;17.60;66.70
51719;DHT22;37795;53.236;5.704;2022-10-16T08:51:08;18.40;65.70
51719;DHT22;37795;53.236;5.704;2022-10-16T08:53:56;19.00;64.40
51719;DHT22;37795;53.236;5.704;2022-10-16T08:56:23;19.00;63.60
51719;DHT22;37795;53.236;5.704;2022-10-16T08:58:50;18.40;66.40
51719;DHT22;37795;53.236;5.704;2022-10-16T09:01:19;19.00;65.30
51719;DHT22;37795;53.236;5.704;2022-10-16T09:04:29;19.30;62.90
51719;DHT22;37795;53.236;5.704;2022-10-16T09:23:18;20.50;58.30
51719;DHT22;37795;53.236;5.704;2022-10-16T09:25:48;20.10;59.50
51719;DHT22;37795;53.236;5.704;2022-10-16T09:28:14;20.40;58.20
51719;DHT22;37795;53.236;5.704;2022-10-16T09:30:41;20.20;59.50
51719;DHT22;37795;53.236;5.704;2022-10-16T09:33:08;20.50;58.20
51719;DHT22;37795;53.236;5.704;2022-10-16T09:35:44;20.90;59.10
51719;DHT22;37795;53.236;5.704;2022-10-16T09:38:31;21.20;57.50
51719;DHT22;37795;53.236;5.704;2022-10-16T09:40:59;20.30;58.80
51719;DHT22;37795;53.236;5.704;2022-10-16T09:46:35;19.30;60.00
51719;DHT22;37795;53.236;5.704;2022-10-16T09:49:17;19.40;60.10
51719;DHT22;37795;53.236;5.704;2022-10-16T09:51:44;19.40;59.20
51719;DHT22;37795;53.236;5.704;2022-10-16T09:56:37;19.00;59.50
51719;DHT22;37795;53.236;5.704;2022-10-16T09:59:12;19.20;57.60
51719;DHT22;37795;53.236;5.704;2022-10-16T10:01:39;19.20;55.70
51719;DHT22;37795;53.236;5.704;2022-10-16T10:04:06;19.60;54.20
51719;DHT22;37795;53.236;5.704;2022-10-16T10:12:01;19.00;54.90
51719;DHT22;37795;53.236;5.704;2022-10-16T10:14:47;19.60;54.40
51719;DHT22;37795;53.236;5.704;2022-10-16T10:17:22;19.10;53.60
51719;DHT22;37795;53.236;5.704;2022-10-16T10:19:54;19.60;54.60
51719;DHT22;37795;53.236;5.704;2022-10-16T10:22:28;19.90;54.10
51719;DHT22;37795;53.236;5.704;2022-10-16T10:25:12;19.70;54.20
51719;DHT22;37795;53.236;5.704;2022-10-16T10:36:34;20.20;53.40
51719;DHT22;37795;53.236;5.704;2022-10-16T10:39:23;20.50;51.40
51719;DHT22;37795;53.236;5.704;2022-10-16T10:42:22;19.90;53.40
51719;DHT22;37795;53.236;5.704;2022-10-16T10:47:46;20.70;50.90
51719;DHT22;37795;53.236;5.704;2022-10-16T11:02:48;20.70;52.20
51719;DHT22;37795;53.236;5.704;2022-10-16T11:05:35;21.00;50.80
51719;DHT22;37795;53.236;5.704;2022-10-16T11:08:16;20.80;50.80
51719;DHT22;37795;53.236;5.704;2022-10-16T11:10:53;20.30;50.60
51719;DHT22;37795;53.236;5.704;2022-10-16T11:15:51;21.30;50.00
51719;DHT22;37795;53.236;5.704;2022-10-16T11:18:25;20.50;51.20
51719;DHT22;37795;53.236;5.704;2022-10-16T11:21:14;21.00;51.00
51719;DHT22;37795;53.236;5.704;2022-10-16T11:23:54;20.30;50.70
51719;DHT22;37795;53.236;5.704;2022-10-16T11:26:27;20.70;50.80
51719;DHT22;37795;53.236;5.704;2022-10-16T11:28:55;20.50;51.00
51719;DHT22;37795;53.236;5.704;2022-10-16T11:39:26;20.00;50.70
51719;DHT22;37795;53.236;5.704;2022-10-16T11:42:02;20.00;51.00
51719;DHT22;37795;53.236;5.704;2022-10-16T11:44:36;20.30;51.50
51719;DHT22;37795;53.236;5.704;2022-10-16T11:52:53;19.90;51.40
51719;DHT22;37795;53.236;5.704;2022-10-16T11:55:34;19.90;52.60
51719;DHT22;37795;53.236;5.704;2022-10-16T12:08:51;20.80;50.20
51719;DHT22;37795;53.236;5.704;2022-10-16T12:13:46;20.70;50.00
51719;DHT22;37795;53.236;5.704;2022-10-16T12:18:44;21.30;49.30
51719;DHT22;37795;53.236;5.704;2022-10-16T12:21:12;21.10;49.10
51719;DHT22;37795;53.236;5.704;2022-10-16T12:23:52;21.50;48.70
51719;DHT22;37795;53.236;5.704;2022-10-16T12:28:51;21.50;48.60
51719;DHT22;37795;53.236;5.704;2022-10-16T12:31:17;21.00;49.20
51719;DHT22;37795;53.236;5.704;2022-10-16T12:33:58;20.50;49.90
51719;DHT22;37795;53.236;5.704;2022-10-16T12:36:31;21.10;49.70
51719;DHT22;37795;53.236;5.704;2022-10-16T12:38:58;20.80;49.50
51719;DHT22;37795;53.236;5.704;2022-10-16T12:41:34;21.10;49.30
51719;DHT22;37795;53.236;5.704;2022-10-16T12:44:01;21.60;48.30
51719;DHT22;37795;53.236;5.704;2022-10-16T12:51:54;21.90;47.40
51719;DHT22;37795;53.236;5.704;2022-10-16T12:54:30;21.00;48.60
51719;DHT22;37795;53.236;5.704;2022-10-16T13:22:10;21.90;48.50
51719;DHT22;37795;53.236;5.704;2022-10-16T13:30:18;20.30;50.70
51719;DHT22;37795;53.236;5.704;2022-10-16T13:32:50;20.70;50.20
51719;DHT22;37795;53.236;5.704;2022-10-16T13:35:26;20.30;50.90
51719;DHT22;37795;53.236;5.704;2022-10-16T13:38:04;19.90;51.60
51719;DHT22;37795;53.236;5.704;2022-10-16T13:40:29;20.00;52.50
51719;DHT22;37795;53.236;5.704;2022-10-16T13:42:55;20.80;50.50
51719;DHT22;37795;53.236;5.704;2022-10-16T13:45:23;20.50;51.30
51719;DHT22;37795;53.236;5.704;2022-10-16T13:48:01;21.60;49.60
51719;DHT22;37795;53.236;5.704;2022-10-16T13:50:27;22.00;48.70
51719;DHT22;37795;53.236;5.704;2022-10-16T13:53:06;22.10;47.80
51719;DHT22;37795;53.236;5.704;2022-10-16T13:55:32;23.00;46.20
51719;DHT22;37795;53.236;5.704;2022-10-16T13:58:10;22.90;47.00
51719;DHT22;37795;53.236;5.704;2022-10-16T14:00:37;22.20;47.10
51719;DHT22;37795;53.236;5.704;2022-10-16T14:03:12;23.40;45.60
51719;DHT22;37795;53.236;5.704;2022-10-16T14:05:54;23.70;44.60
51719;DHT22;37795;53.236;5.704;2022-10-16T14:08:21;22.90;46.60
51719;DHT22;37795;53.236;5.704;2022-10-16T14:10:52;23.30;46.50
51719;DHT22;37795;53.236;5.704;2022-10-16T14:13:36;24.10;45.90
51719;DHT22;37795;53.236;5.704;2022-10-16T14:16:07;24.20;44.40
51719;DHT22;37795;53.236;5.704;2022-10-16T14:18:35;24.70;44.40
51719;DHT22;37795;53.236;5.704;2022-10-16T14:21:04;24.90;43.90
51719;DHT22;37795;53.236;5.704;2022-10-16T14:23:32;23.20;45.10
51719;DHT22;37795;53.236;5.704;2022-10-16T14:28:37;22.20;47.30
51719;DHT22;37795;53.236;5.704;2022-10-16T14:31:34;21.90;48.10
51719;DHT22;37795;53.236;5.704;2022-10-16T14:34:02;22.70;47.00
51719;DHT22;37795;53.236;5.704;2022-10-16T14:36:29;22.20;47.40
51719;DHT22;37795;53.236;5.704;2022-10-16T14:41:28;22.10;48.20
51719;DHT22;37795;53.236;5.704;2022-10-16T14:43:56;21.90;48.50
51719;DHT22;37795;53.236;5.704;2022-10-16T14:46:32;21.60;49.40
51719;DHT22;37795;53.236;5.704;2022-10-16T14:49:03;20.50;51.40
51719;DHT22;37795;53.236;5.704;2022-10-16T14:51:29;19.90;52.00
51719;DHT22;37795;53.236;5.704;2022-10-16T14:53:54;19.60;53.20
51719;DHT22;37795;53.236;5.704;2022-10-16T14:56:23;19.00;54.40
51719;DHT22;37795;53.236;5.704;2022-10-16T14:58:50;18.90;55.00
51719;DHT22;37795;53.236;5.704;2022-10-16T15:01:16;18.70;55.60
51719;DHT22;37795;53.236;5.704;2022-10-16T15:03:43;18.80;55.60
51719;DHT22;37795;53.236;5.704;2022-10-16T15:06:13;18.30;56.30
51719;DHT22;37795;53.236;5.704;2022-10-16T15:08:39;18.10;57.10
51719;DHT22;37795;53.236;5.704;2022-10-16T15:11:18;18.20;57.20
51719;DHT22;37795;53.236;5.704;2022-10-16T15:13:45;18.00;57.70
51719;DHT22;37795;53.236;5.704;2022-10-16T15:16:13;17.80;58.70
51719;DHT22;37795;53.236;5.704;2022-10-16T15:18:39;17.70;58.30
51719;DHT22;37795;53.236;5.704;2022-10-16T15:21:05;17.50;59.00
51719;DHT22;37795;53.236;5.704;2022-10-16T15:23:31;17.40;59.40
51719;DHT22;37795;53.236;5.704;2022-10-16T15:25:57;17.50;59.70
51719;DHT22;37795;53.236;5.704;2022-10-16T15:28:24;17.30;59.90
51719;DHT22;37795;53.236;5.704;2022-10-16T15:30:52;17.20;60.60
51719;DHT22;37795;53.236;5.704;2022-10-16T15:33:21;17.20;60.20
51719;DHT22;37795;53.236;5.704;2022-10-16T15:35:51;17.10;60.70
51719;DHT22;37795;53.236;5.704;2022-10-16T15:38:19;17.10;61.00
51719;DHT22;37795;53.236;5.704;2022-10-16T15:40:46;17.10;61.30
51719;DHT22;37795;53.236;5.704;2022-10-16T15:43:11;16.80;62.50
51719;DHT22;37795;53.236;5.704;2022-10-16T15:45:37;16.90;62.10
51719;DHT22;37795;53.236;5.704;2022-10-16T15:48:03;16.90;62.40
51719;DHT22;37795;53.236;5.704;2022-10-16T15:50:30;16.30;63.50
51719;DHT22;37795;53.236;5.704;2022-10-16T15:52:57;16.50;63.40
51719;DHT22;37795;53.236;5.704;2022-10-16T15:55:22;16.40;63.30
51719;DHT22;37795;53.236;5.704;2022-10-16T15:57:48;16.50;63.40
51719;DHT22;37795;53.236;5.704;2022-10-16T16:00:18;16.60;63.00
51719;DHT22;37795;53.236;5.704;2022-10-16T16:02:51;16.70;63.10
51719;DHT22;37795;53.236;5.704;2022-10-16T16:05:18;16.70;62.90
51719;DHT22;37795;53.236;5.704;2022-10-16T16:07:44;16.60;63.00
51719;DHT22;37795;53.236;5.704;2022-10-16T16:10:11;16.50;63.80
51719;DHT22;37795;53.236;5.704;2022-10-16T16:12:37;16.50;63.90
51719;DHT22;37795;53.236;5.704;2022-10-16T16:15:07;16.50;64.00
51719;DHT22;37795;53.236;5.704;2022-10-16T16:17:34;16.30;64.50
51719;DHT22;37795;53.236;5.704;2022-10-16T16:20:00;16.30;64.70
51719;DHT22;37795;53.236;5.704;2022-10-16T16:22:27;16.20;64.90
51719;DHT22;37795;53.236;5.704;2022-10-16T16:24:52;16.10;64.90
51719;DHT22;37795;53.236;5.704;2022-10-16T16:27:18;16.10;64.90
51719;DHT22;37795;53.236;5.704;2022-10-16T16:29:46;16.10;65.00
51719;DHT22;37795;53.236;5.704;2022-10-16T16:32:12;16.10;65.00
51719;DHT22;37795;53.236;5.704;2022-10-16T16:34:37;16.10;65.10
51719;DHT22;37795;53.236;5.704;2022-10-16T16:37:03;16.00;65.40
51719;DHT22;37795;53.236;5.704;2022-10-16T16:39:29;15.90;65.40
51719;DHT22;37795;53.236;5.704;2022-10-16T16:41:56;15.70;66.20
51719;DHT22;37795;53.236;5.704;2022-10-16T16:44:22;15.60;66.40
51719;DHT22;37795;53.236;5.704;2022-10-16T16:46:48;15.60;66.80
51719;DHT22;37795;53.236;5.704;2022-10-16T16:49:14;15.60;66.80
51719;DHT22;37795;53.236;5.704;2022-10-16T16:51:40;15.70;66.50
51719;DHT22;37795;53.236;5.704;2022-10-16T16:54:07;15.60;66.40
51719;DHT22;37795;53.236;5.704;2022-10-16T16:56:34;15.50;66.80
51719;DHT22;37795;53.236;5.704;2022-10-16T16:59:00;15.30;67.10
51719;DHT22;37795;53.236;5.704;2022-10-16T17:01:27;15.10;67.90
51719;DHT22;37795;53.236;5.704;2022-10-16T17:03:55;15.10;68.10
51719;DHT22;37795;53.236;5.704;2022-10-16T17:06:23;15.10;67.90
51719;DHT22;37795;53.236;5.704;2022-10-16T17:08:49;15.00;68.30
51719;DHT22;37795;53.236;5.704;2022-10-16T17:11:18;15.00;68.50
51719;DHT22;37795;53.236;5.704;2022-10-16T17:13:44;14.90;68.60
51719;DHT22;37795;53.236;5.704;2022-10-16T17:16:10;14.80;68.90
51719;DHT22;37795;53.236;5.704;2022-10-16T17:18:36;14.80;69.00
51719;DHT22;37795;53.236;5.704;2022-10-16T17:21:05;14.70;69.20
51719;DHT22;37795;53.236;5.704;2022-10-16T17:23:32;14.70;69.30
51719;DHT22;37795;53.236;5.704;2022-10-16T17:26:03;14.60;69.50
51719;DHT22;37795;53.236;5.704;2022-10-16T17:28:30;14.60;69.60
51719;DHT22;37795;53.236;5.704;2022-10-16T17:30:55;14.50;69.70
51719;DHT22;37795;53.236;5.704;2022-10-16T17:33:21;14.50;69.90
51719;DHT22;37795;53.236;5.704;2022-10-16T17:35:47;14.50;69.90
51719;DHT22;37795;53.236;5.704;2022-10-16T17:38:14;14.50;70.00
51719;DHT22;37795;53.236;5.704;2022-10-16T17:40:41;14.60;70.00
51719;DHT22;37795;53.236;5.704;2022-10-16T17:43:08;14.50;69.90
51719;DHT22;37795;53.236;5.704;2022-10-16T17:45:36;14.40;70.50
51719;DHT22;37795;53.236;5.704;2022-10-16T17:48:03;14.30;70.70
51719;DHT22;37795;53.236;5.704;2022-10-16T17:50:28;14.40;70.50
51719;DHT22;37795;53.236;5.704;2022-10-16T17:52:54;14.40;70.40
51719;DHT22;37795;53.236;5.704;2022-10-16T17:55:20;14.30;70.70
51719;DHT22;37795;53.236;5.704;2022-10-16T17:57:45;14.20;71.00
51719;DHT22;37795;53.236;5.704;2022-10-16T18:00:12;14.20;71.00
51719;DHT22;37795;53.236;5.704;2022-10-16T18:02:37;14.30;70.90
51719;DHT22;37795;53.236;5.704;2022-10-16T18:05:07;14.20;70.90
51719;DHT22;37795;53.236;5.704;2022-10-16T18:07:33;14.10;71.50
51719;DHT22;37795;53.236;5.704;2022-10-16T18:09:59;14.10;71.40
51719;DHT22;37795;53.236;5.704;2022-10-16T18:12:25;14.00;71.30
51719;DHT22;37795;53.236;5.704;2022-10-16T18:14:51;14.00;71.50
51719;DHT22;37795;53.236;5.704;2022-10-16T18:17:20;14.00;71.70
51719;DHT22;37795;53.236;5.704;2022-10-16T18:19:45;13.90;71.90
51719;DHT22;37795;53.236;5.704;2022-10-16T18:22:11;14.00;71.90